sensor_id;sensor_type;location;lat;lon;timestamp;pressure;altitude;pressure_sealevel;temperature;humidity
71195;BME280;58908;51.426;7.714;2023-02-22T00:02:01;99772.00;;;5.15;100.00
71195;BME280;58908;51.426;7.714;2023-02-22T00:04:37;99765.72;;;5.19;100.00
71195;BME280;58908;51.426;7.714;2023-02-22T00:07:03;99766.59;;;5.19;100.00
71195;BME280;58908;51.426;7.714;2023-02-22T00:09:29;99772.63;;;5.21;100.00
71195;BME280;58908;51.426;7.714;2023-02-22T00:11:56;99758.53;;;5.25;100.00
71195;BME280;58908;51.426;7.714;2023-02-22T00:14:23;99765.56;;;5.23;100.00
71195;BME280;58908;51.426;7.714;2023-02-22T00:16:52;99761.22;;;5.24;100.00
71195;BME280;58908;51.426;7.714;2023-02-22T00:19:20;99752.97;;;5.10;100.00
71195;BME280;58908;51.426;7.714;2023-02-22T00:21:50;99751.78;;;4.95;100.00
71195;BME280;58908;51.426;7.714;2023-02-22T00:24:16;99752.38;;;5.26;100.00
71195;BME280;58908;51.426;7.714;2023-02-22T00:26:48;99748.56;;;4.87;100.00
71195;BME280;58908;51.426;7.714;2023-02-22T00:29:14;99749.25;;;4.92;100.00
71195;BME280;58908;51.426;7.714;2023-02-22T00:31:41;99741.78;;;4.82;100.00
71195;BME280;58908;51.426;7.714;2023-02-22T00:34:09;99743.34;;;4.87;100.00
71195;BME280;58908;51.426;7.714;2023-02-22T00:36:35;99741.31;;;4.95;100.00
71195;BME280;58908;51.426;7.714;2023-02-22T00:39:01;99743.38;;;4.86;100.00
71195;BME280;58908;51.426;7.714;2023-02-22T00:41:27;99742.06;;;4.74;100.00
71195;BME280;58908;51.426;7.714;2023-02-22T00:43:54;99740.25;;;4.76;100.00
71195;BME280;58908;51.426;7.714;2023-02-22T00:46:20;99742.81;;;4.78;100.00
71195;BME280;58908;51.426;7.714;2023-02-22T00:48:46;99732.41;;;4.76;100.00
71195;BME280;58908;51.426;7.714;2023-02-22T00:51:14;99731.50;;;4.77;100.00
71195;BME280;58908;51.426;7.714;2023-02-22T00:53:40;99726.13;;;4.82;100.00
71195;BME280;58908;51.426;7.714;2023-02-22T00:56:06;99725.16;;;4.84;100.00
71195;BME280;58908;51.426;7.714;2023-02-22T00:58:32;99714.72;;;4.84;100.00
71195;BME280;58908;51.426;7.714;2023-02-22T01:00:59;99724.34;;;4.82;100.00
71195;BME280;58908;51.426;7.714;2023-02-22T01:03:25;99716.63;;;4.79;100.00
71195;BME280;58908;51.426;7.714;2023-02-22T01:05:51;99707.78;;;4.83;100.00
71195;BME280;58908;51.426;7.714;2023-02-22T01:08:19;99711.22;;;4.84;100.00
71195;BME280;58908;51.426;7.714;2023-02-22T01:10:45;99713.66;;;4.90;100.00
71195;BME280;58908;51.426;7.714;2023-02-22T01:13:12;99711.88;;;4.90;100.00
71195;BME280;58908;51.426;7.714;2023-02-22T01:15:38;99711.59;;;4.98;100.00
71195;BME280;58908;51.426;7.714;2023-02-22T01:18:05;99715.91;;;4.99;100.00
71195;BME280;58908;51.426;7.714;2023-02-22T01:20:32;99708.06;;;4.99;100.00
71195;BME280;58908;51.426;7.714;2023-02-22T01:22:59;99706.66;;;5.13;100.00
71195;BME280;58908;51.426;7.714;2023-02-22T01:25:29;99702.00;;;4.98;100.00
71195;BME280;58908;51.426;7.714;2023-02-22T01:27:56;99698.75;;;4.92;100.00
71195;BME280;58908;51.426;7.714;2023-02-22T01:30:23;99697.69;;;4.97;100.00
71195;BME280;58908;51.426;7.714;2023-02-22T01:32:50;99694.59;;;4.86;100.00
71195;BME280;58908;51.426;7.714;2023-02-22T01:35:18;99693.22;;;4.76;100.00
71195;BME280;58908;51.426;7.714;2023-02-22T01:37:44;99689.59;;;4.56;100.00
71195;BME280;58908;51.426;7.714;2023-02-22T01:40:14;99685.25;;;4.55;100.00
71195;BME280;58908;51.426;7.714;2023-02-22T01:42:42;99677.78;;;4.45;100.00
71195;BME280;58908;51.426;7.714;2023-02-22T01:47:54;99674.56;;;4.37;100.00
71195;BME280;58908;51.426;7.714;2023-02-22T01:50:20;99668.59;;;4.33;100.00
71195;BME280;58908;51.426;7.714;2023-02-22T01:52:46;99668.16;;;4.21;100.00
71195;BME280;58908;51.426;7.714;2023-02-22T01:55:13;99667.31;;;4.20;100.00
71195;BME280;58908;51.426;7.714;2023-02-22T01:57:40;99659.44;;;4.22;100.00
71195;BME280;58908;51.426;7.714;2023-02-22T02:00:09;99659.84;;;4.10;100.00
71195;BME280;58908;51.426;7.714;2023-02-22T02:02:36;99656.72;;;3.99;100.00
71195;BME280;58908;51.426;7.714;2023-02-22T02:05:04;99645.81;;;3.86;100.00
71195;BME280;58908;51.426;7.714;2023-02-22T02:07:32;99651.72;;;3.65;100.00
71195;BME280;58908;51.426;7.714;2023-02-22T02:09:59;99649.19;;;3.62;100.00
71195;BME280;58908;51.426;7.714;2023-02-22T02:12:26;99649.72;;;3.46;100.00
71195;BME280;58908;51.426;7.714;2023-02-22T02:17:36;99649.03;;;3.41;100.00
71195;BME280;58908;51.426;7.714;2023-02-22T02:20:04;99643.66;;;3.45;100.00
71195;BME280;58908;51.426;7.714;2023-02-22T02:22:37;99646.47;;;3.38;100.00
71195;BME280;58908;51.426;7.714;2023-02-22T02:25:29;99646.31;;;3.44;100.00
71195;BME280;58908;51.426;7.714;2023-02-22T02:28:11;99644.34;;;3.52;100.00
71195;BME280;58908;51.426;7.714;2023-02-22T02:30:44;99642.47;;;3.55;100.00
71195;BME280;58908;51.426;7.714;2023-02-22T02:33:16;99640.97;;;3.48;100.00
71195;BME280;58908;51.426;7.714;2023-02-22T02:35:47;99630.44;;;3.51;100.00
71195;BME280;58908;51.426;7.714;2023-02-22T02:38:16;99632.47;;;3.42;100.00
71195;BME280;58908;51.426;7.714;2023-02-22T02:40:47;99630.44;;;3.51;100.00
71195;BME280;58908;51.426;7.714;2023-02-22T02:43:16;99636.81;;;3.41;100.00
71195;BME280;58908;51.426;7.714;2023-02-22T02:45:47;99637.97;;;3.33;100.00
71195;BME280;58908;51.426;7.714;2023-02-22T02:48:16;99629.50;;;3.25;100.00
71195;BME280;58908;51.426;7.714;2023-02-22T02:50:46;99629.47;;;3.26;100.00
71195;BME280;58908;51.426;7.714;2023-02-22T02:53:14;99619.94;;;3.25;100.00
71195;BME280;58908;51.426;7.714;2023-02-22T02:55:42;99621.09;;;3.17;100.00
71195;BME280;58908;51.426;7.714;2023-02-22T02:58:10;99616.31;;;3.02;100.00
71195;BME280;58908;51.426;7.714;2023-02-22T03:00:41;99617.53;;;2.90;100.00
71195;BME280;58908;51.426;7.714;2023-02-22T03:03:15;99613.69;;;2.73;100.00
71195;BME280;58908;51.426;7.714;2023-02-22T03:05:56;99611.16;;;2.70;100.00
71195;BME280;58908;51.426;7.714;2023-02-22T03:08:29;99607.03;;;2.63;100.00
71195;BME280;58908;51.426;7.714;2023-02-22T03:11:02;99606.19;;;2.61;100.00
71195;BME280;58908;51.426;7.714;2023-02-22T03:13:33;99598.38;;;2.61;100.00
71195;BME280;58908;51.426;7.714;2023-02-22T03:16:03;99602.00;;;2.57;100.00
71195;BME280;58908;51.426;7.714;2023-02-22T03:18:32;99596.84;;;2.55;100.00
71195;BME280;58908;51.426;7.714;2023-02-22T03:21:06;99593.34;;;2.56;100.00
71195;BME280;58908;51.426;7.714;2023-02-22T03:23:36;99595.09;;;2.54;100.00
71195;BME280;58908;51.426;7.714;2023-02-22T03:26:07;99586.47;;;2.54;100.00
71195;BME280;58908;51.426;7.714;2023-02-22T03:28:36;99587.91;;;2.64;100.00
71195;BME280;58908;51.426;7.714;2023-02-22T03:31:07;99585.13;;;2.70;100.00
71195;BME280;58908;51.426;7.714;2023-02-22T03:33:35;99582.75;;;2.62;100.00
71195;BME280;58908;51.426;7.714;2023-02-22T03:36:08;99583.66;;;2.60;100.00
71195;BME280;58908;51.426;7.714;2023-02-22T03:38:37;99577.63;;;2.59;100.00
71195;BME280;58908;51.426;7.714;2023-02-22T03:41:05;99572.50;;;2.56;100.00
71195;BME280;58908;51.426;7.714;2023-02-22T03:43:33;99578.19;;;2.40;100.00
71195;BME280;58908;51.426;7.714;2023-02-22T03:46:02;99573.81;;;2.40;100.00
71195;BME280;58908;51.426;7.714;2023-02-22T03:48:29;99578.91;;;2.45;100.00
71195;BME280;58908;51.426;7.714;2023-02-22T03:51:01;99580.59;;;2.46;100.00
71195;BME280;58908;51.426;7.714;2023-02-22T03:53:29;99572.22;;;2.36;100.00
71195;BME280;58908;51.426;7.714;2023-02-22T03:55:57;99567.13;;;2.32;100.00
71195;BME280;58908;51.426;7.714;2023-02-22T03:58:25;99576.53;;;2.36;100.00
71195;BME280;58908;51.426;7.714;2023-02-22T04:00:53;99571.31;;;2.37;100.00
71195;BME280;58908;51.426;7.714;2023-02-22T04:03:20;99573.16;;;2.32;100.00
71195;BME280;58908;51.426;7.714;2023-02-22T04:05:46;99574.34;;;2.23;100.00
71195;BME280;58908;51.426;7.714;2023-02-22T04:08:13;99565.69;;;2.21;100.00
71195;BME280;58908;51.426;7.714;2023-02-22T04:10:41;99567.69;;;2.11;100.00
71195;BME280;58908;51.426;7.714;2023-02-22T04:13:07;99570.75;;;1.95;100.00
71195;BME280;58908;51.426;7.714;2023-02-22T04:15:34;99572.63;;;1.90;100.00
71195;BME280;58908;51.426;7.714;2023-02-22T04:18:01;99565.94;;;1.80;100.00
71195;BME280;58908;51.426;7.714;2023-02-22T04:20:27;99564.25;;;1.77;100.00
71195;BME280;58908;51.426;7.714;2023-02-22T04:22:54;99561.66;;;1.77;100.00
71195;BME280;58908;51.426;7.714;2023-02-22T04:25:20;99566.06;;;1.74;100.00
71195;BME280;58908;51.426;7.714;2023-02-22T04:27:48;99565.19;;;1.75;100.00
71195;BME280;58908;51.426;7.714;2023-02-22T04:30:15;99559.44;;;1.62;100.00
71195;BME280;58908;51.426;7.714;2023-02-22T04:32:42;99561.47;;;1.50;100.00
71195;BME280;58908;51.426;7.714;2023-02-22T04:35:08;99560.16;;;1.34;100.00
71195;BME280;58908;51.426;7.714;2023-02-22T04:37:35;99560.78;;;1.43;100.00
71195;BME280;58908;51.426;7.714;2023-02-22T04:40:01;99559.00;;;1.45;100.00
71195;BME280;58908;51.426;7.714;2023-02-22T04:42:31;99558.25;;;1.40;100.00
71195;BME280;58908;51.426;7.714;2023-02-22T04:44:58;99550.50;;;1.39;100.00
71195;BME280;58908;51.426;7.714;2023-02-22T04:47:25;99555.50;;;1.46;100.00
71195;BME280;58908;51.426;7.714;2023-02-22T04:49:51;99552.28;;;1.37;100.00
71195;BME280;58908;51.426;7.714;2023-02-22T04:52:17;99555.78;;;1.34;100.00
71195;BME280;58908;51.426;7.714;2023-02-22T04:54:43;99552.31;;;1.35;100.00
71195;BME280;58908;51.426;7.714;2023-02-22T04:57:10;99551.41;;;1.36;100.00
71195;BME280;58908;51.426;7.714;2023-02-22T04:59:36;99548.22;;;1.25;100.00
71195;BME280;58908;51.426;7.714;2023-02-22T05:02:04;99547.41;;;1.22;100.00
71195;BME280;58908;51.426;7.714;2023-02-22T05:04:30;99545.47;;;1.31;100.00
71195;BME280;58908;51.426;7.714;2023-02-22T05:06:56;99533.34;;;1.32;100.00
71195;BME280;58908;51.426;7.714;2023-02-22T05:09:23;99534.28;;;1.29;100.00
71195;BME280;58908;51.426;7.714;2023-02-22T05:11:49;99533.53;;;1.24;100.00
71195;BME280;58908;51.426;7.714;2023-02-22T05:14:15;99527.81;;;1.45;100.00
71195;BME280;58908;51.426;7.714;2023-02-22T05:16:41;99522.53;;;1.48;100.00
71195;BME280;58908;51.426;7.714;2023-02-22T05:19:09;99522.63;;;1.79;100.00
71195;BME280;58908;51.426;7.714;2023-02-22T05:21:36;99520.03;;;1.79;100.00
71195;BME280;58908;51.426;7.714;2023-02-22T05:24:02;99520.28;;;1.68;100.00
71195;BME280;58908;51.426;7.714;2023-02-22T05:26:28;99518.97;;;1.52;100.00
71195;BME280;58908;51.426;7.714;2023-02-22T05:28:54;99514.56;;;1.56;100.00
71195;BME280;58908;51.426;7.714;2023-02-22T05:31:21;99512.81;;;1.56;100.00
71195;BME280;58908;51.426;7.714;2023-02-22T05:33:49;99521.16;;;1.69;100.00
71195;BME280;58908;51.426;7.714;2023-02-22T05:36:16;99516.53;;;1.46;100.00
71195;BME280;58908;51.426;7.714;2023-02-22T05:38:43;99510.22;;;1.55;100.00
71195;BME280;58908;51.426;7.714;2023-02-22T05:41:09;99513.94;;;1.46;100.00
71195;BME280;58908;51.426;7.714;2023-02-22T05:43:36;99514.91;;;1.42;100.00
71195;BME280;58908;51.426;7.714;2023-02-22T05:46:02;99508.06;;;1.38;100.00
71195;BME280;58908;51.426;7.714;2023-02-22T05:48:28;99513.34;;;1.35;100.00
71195;BME280;58908;51.426;7.714;2023-02-22T05:50:55;99512.06;;;1.16;100.00
71195;BME280;58908;51.426;7.714;2023-02-22T05:53:22;99511.19;;;1.17;100.00
71195;BME280;58908;51.426;7.714;2023-02-22T05:55:48;99514.53;;;1.21;100.00
71195;BME280;58908;51.426;7.714;2023-02-22T05:58:15;99510.94;;;1.26;100.00
71195;BME280;58908;51.426;7.714;2023-02-22T06:00:41;99506.91;;;1.15;100.00
71195;BME280;58908;51.426;7.714;2023-02-22T06:03:07;99509.50;;;1.15;100.00
71195;BME280;58908;51.426;7.714;2023-02-22T06:05:35;99506.53;;;1.30;100.00
71195;BME280;58908;51.426;7.714;2023-02-22T06:08:01;99509.03;;;1.34;100.00
71195;BME280;58908;51.426;7.714;2023-02-22T06:10:29;99515.16;;;1.32;100.00
71195;BME280;58908;51.426;7.714;2023-02-22T06:12:56;99511.94;;;1.22;100.00
71195;BME280;58908;51.426;7.714;2023-02-22T06:15:23;99514.50;;;1.24;100.00
71195;BME280;58908;51.426;7.714;2023-02-22T06:17:50;99512.72;;;1.26;100.00
71195;BME280;58908;51.426;7.714;2023-02-22T06:20:17;99518.81;;;1.25;100.00
71195;BME280;58908;51.426;7.714;2023-02-22T06:22:45;99521.41;;;1.25;100.00
71195;BME280;58908;51.426;7.714;2023-02-22T06:25:12;99523.94;;;1.26;100.00
71195;BME280;58908;51.426;7.714;2023-02-22T06:27:40;99521.41;;;1.25;100.00
71195;BME280;58908;51.426;7.714;2023-02-22T06:30:07;99522.44;;;1.16;100.00
71195;BME280;58908;51.426;7.714;2023-02-22T06:32:33;99526.00;;;1.12;100.00
71195;BME280;58908;51.426;7.714;2023-02-22T06:34:59;99526.88;;;1.13;100.00
71195;BME280;58908;51.426;7.714;2023-02-22T06:37:26;99531.09;;;1.17;100.00
71195;BME280;58908;51.426;7.714;2023-02-22T06:39:52;99532.00;;;1.16;100.00
71195;BME280;58908;51.426;7.714;2023-02-22T06:42:18;99536.28;;;1.18;100.00
71195;BME280;58908;51.426;7.714;2023-02-22T06:44:46;99542.31;;;1.19;100.00
71195;BME280;58908;51.426;7.714;2023-02-22T06:47:12;99539.78;;;1.16;100.00
71195;BME280;58908;51.426;7.714;2023-02-22T06:49:38;99537.59;;;1.34;100.00
71195;BME280;58908;51.426;7.714;2023-02-22T06:52:05;99530.56;;;1.39;100.00
71195;BME280;58908;51.426;7.714;2023-02-22T06:54:31;99533.91;;;1.44;100.00
71195;BME280;58908;51.426;7.714;2023-02-22T06:56:57;99526.81;;;1.51;100.00
71195;BME280;58908;51.426;7.714;2023-02-22T06:59:24;99529.16;;;1.61;100.00
71195;BME280;58908;51.426;7.714;2023-02-22T07:01:51;99531.19;;;1.82;100.00
71195;BME280;58908;51.426;7.714;2023-02-22T07:04:18;99529.13;;;1.95;100.00
71195;BME280;58908;51.426;7.714;2023-02-22T07:06:44;99521.31;;;2.27;100.00
71195;BME280;58908;51.426;7.714;2023-02-22T07:09:10;99525.13;;;2.45;100.00
71195;BME280;58908;51.426;7.714;2023-02-22T07:11:37;99519.66;;;2.82;100.00
71195;BME280;58908;51.426;7.714;2023-02-22T07:14:03;99524.22;;;3.03;100.00
71195;BME280;58908;51.426;7.714;2023-02-22T07:16:29;99516.06;;;3.67;100.00
71195;BME280;58908;51.426;7.714;2023-02-22T07:18:57;99515.34;;;3.88;100.00
71195;BME280;58908;51.426;7.714;2023-02-22T07:21:24;99522.22;;;3.90;100.00
71195;BME280;58908;51.426;7.714;2023-02-22T07:23:51;99516.56;;;4.02;100.00
71195;BME280;58908;51.426;7.714;2023-02-22T07:26:17;99515.06;;;4.20;100.00
71195;BME280;58908;51.426;7.714;2023-02-22T07:28:44;99512.91;;;3.57;100.00
71195;BME280;58908;51.426;7.714;2023-02-22T07:31:10;99513.50;;;3.39;100.00
71195;BME280;58908;51.426;7.714;2023-02-22T07:33:36;99517.44;;;3.25;100.00
71195;BME280;58908;51.426;7.714;2023-02-22T07:36:04;99516.66;;;3.23;100.00
71195;BME280;58908;51.426;7.714;2023-02-22T07:38:31;99520.16;;;3.22;100.00
71195;BME280;58908;51.426;7.714;2023-02-22T07:40:57;99518.72;;;3.12;100.00
71195;BME280;58908;51.426;7.714;2023-02-22T07:43:24;99521.84;;;3.23;100.00
71195;BME280;58908;51.426;7.714;2023-02-22T07:45:51;99519.97;;;3.54;100.00
71195;BME280;58908;51.426;7.714;2023-02-22T07:48:18;99526.13;;;3.77;100.00
71195;BME280;58908;51.426;7.714;2023-02-22T07:50:45;99518.13;;;3.82;100.00
71195;BME280;58908;51.426;7.714;2023-02-22T07:53:13;99520.94;;;4.02;100.00
71195;BME280;58908;51.426;7.714;2023-02-22T07:55:39;99517.56;;;4.23;100.00
71195;BME280;58908;51.426;7.714;2023-02-22T07:58:06;99512.25;;;4.49;100.00
71195;BME280;58908;51.426;7.714;2023-02-22T08:00:34;99522.50;;;4.99;100.00
71195;BME280;58908;51.426;7.714;2023-02-22T08:03:03;99518.81;;;5.26;100.00
71195;BME280;58908;51.426;7.714;2023-02-22T08:05:31;99515.13;;;5.73;100.00
71195;BME280;58908;51.426;7.714;2023-02-22T08:07:58;99505.34;;;5.98;100.00
71195;BME280;58908;51.426;7.714;2023-02-22T08:10:26;99504.25;;;6.03;100.00
71195;BME280;58908;51.426;7.714;2023-02-22T08:12:52;99506.41;;;6.34;100.00
71195;BME280;58908;51.426;7.714;2023-02-22T08:15:21;99504.31;;;7.15;100.00
71195;BME280;58908;51.426;7.714;2023-02-22T08:17:50;99504.13;;;7.72;100.00
71195;BME280;58908;51.426;7.714;2023-02-22T08:20:17;99490.22;;;8.04;100.00
71195;BME280;58908;51.426;7.714;2023-02-22T08:22:44;99495.03;;;7.79;100.00
71195;BME280;58908;51.426;7.714;2023-02-22T08:25:10;99495.53;;;7.69;100.00
71195;BME280;58908;51.426;7.714;2023-02-22T08:27:38;99485.88;;;8.20;100.00
71195;BME280;58908;51.426;7.714;2023-02-22T08:30:04;99480.84;;;8.33;100.00
71195;BME280;58908;51.426;7.714;2023-02-22T08:32:31;99482.56;;;8.34;100.00
71195;BME280;58908;51.426;7.714;2023-02-22T08:34:59;99478.78;;;8.55;100.00
71195;BME280;58908;51.426;7.714;2023-02-22T08:37:25;99476.88;;;9.36;100.00
71195;BME280;58908;51.426;7.714;2023-02-22T08:39:51;99476.34;;;9.89;100.00
71195;BME280;58908;51.426;7.714;2023-02-22T08:42:18;99477.66;;;10.26;100.00
71195;BME280;58908;51.426;7.714;2023-02-22T08:44:45;99473.13;;;9.84;100.00
71195;BME280;58908;51.426;7.714;2023-02-22T08:47:12;99472.41;;;9.96;100.00
71195;BME280;58908;51.426;7.714;2023-02-22T08:49:38;99466.31;;;10.10;100.00
71195;BME280;58908;51.426;7.714;2023-02-22T08:52:06;99468.66;;;10.58;100.00
71195;BME280;58908;51.426;7.714;2023-02-22T08:54:32;99466.97;;;11.11;100.00
71195;BME280;58908;51.426;7.714;2023-02-22T08:56:59;99465.19;;;11.38;100.00
71195;BME280;58908;51.426;7.714;2023-02-22T08:59:25;99468.09;;;11.48;100.00
71195;BME280;58908;51.426;7.714;2023-02-22T09:01:52;99466.06;;;11.65;100.00
71195;BME280;58908;51.426;7.714;2023-02-22T09:04:21;99457.56;;;11.87;100.00
71195;BME280;58908;51.426;7.714;2023-02-22T09:06:47;99457.59;;;11.99;100.00
71195;BME280;58908;51.426;7.714;2023-02-22T09:09:15;99454.75;;;12.27;100.00
71195;BME280;58908;51.426;7.714;2023-02-22T09:11:43;99455.59;;;12.27;100.00
71195;BME280;58908;51.426;7.714;2023-02-22T09:14:09;99452.63;;;12.19;100.00
71195;BME280;58908;51.426;7.714;2023-02-22T09:16:35;99452.63;;;12.32;100.00
71195;BME280;58908;51.426;7.714;2023-02-22T09:19:03;99448.84;;;12.23;100.00
71195;BME280;58908;51.426;7.714;2023-02-22T09:21:29;99447.13;;;12.35;100.00
71195;BME280;58908;51.426;7.714;2023-02-22T09:23:56;99445.09;;;12.76;100.00
71195;BME280;58908;51.426;7.714;2023-02-22T09:26:22;99445.06;;;13.01;100.00
71195;BME280;58908;51.426;7.714;2023-02-22T09:28:48;99445.75;;;13.15;100.00
71195;BME280;58908;51.426;7.714;2023-02-22T09:31:15;99434.25;;;13.40;100.00
71195;BME280;58908;51.426;7.714;2023-02-22T09:33:41;99436.09;;;13.50;100.00
71195;BME280;58908;51.426;7.714;2023-02-22T09:36:09;99433.97;;;13.66;99.18
71195;BME280;58908;51.426;7.714;2023-02-22T09:38:35;99433.59;;;13.60;100.00
71195;BME280;58908;51.426;7.714;2023-02-22T09:41:04;99439.75;;;13.60;100.00
71195;BME280;58908;51.426;7.714;2023-02-22T09:43:36;99438.09;;;13.47;100.00
71195;BME280;58908;51.426;7.714;2023-02-22T09:46:25;99433.75;;;13.46;100.00
71195;BME280;58908;51.426;7.714;2023-02-22T09:48:55;99434.09;;;13.65;98.29
71195;BME280;58908;51.426;7.714;2023-02-22T09:51:24;99433.28;;;13.75;98.27
71195;BME280;58908;51.426;7.714;2023-02-22T09:53:52;99431.06;;;14.27;97.07
71195;BME280;58908;51.426;7.714;2023-02-22T09:56:20;99432.84;;;13.81;97.04
71195;BME280;58908;51.426;7.714;2023-02-22T09:58:48;99432.78;;;14.16;94.98
71195;BME280;58908;51.426;7.714;2023-02-22T10:01:18;99426.06;;;13.77;90.92
71195;BME280;58908;51.426;7.714;2023-02-22T10:03:49;99432.19;;;13.43;91.83
71195;BME280;58908;51.426;7.714;2023-02-22T10:06:19;99431.19;;;12.97;95.57
71195;BME280;58908;51.426;7.714;2023-02-22T10:08:47;99423.59;;;12.80;97.49
71195;BME280;58908;51.426;7.714;2023-02-22T10:11:16;99422.44;;;13.20;96.02
71195;BME280;58908;51.426;7.714;2023-02-22T10:13:46;99417.69;;;13.13;97.55
71195;BME280;58908;51.426;7.714;2023-02-22T10:16:16;99412.94;;;12.69;96.71
71195;BME280;58908;51.426;7.714;2023-02-22T10:18:51;99414.16;;;13.01;93.59
71195;BME280;58908;51.426;7.714;2023-02-22T10:21:27;99406.38;;;13.11;91.61
71195;BME280;58908;51.426;7.714;2023-02-22T10:24:01;99406.31;;;13.00;91.02
71195;BME280;58908;51.426;7.714;2023-02-22T10:26:31;99394.25;;;13.43;87.49
71195;BME280;58908;51.426;7.714;2023-02-22T10:29:01;99390.59;;;13.56;80.51
71195;BME280;58908;51.426;7.714;2023-02-22T10:31:29;99394.50;;;13.74;77.36
71195;BME280;58908;51.426;7.714;2023-02-22T10:33:57;99387.63;;;13.83;76.70
71195;BME280;58908;51.426;7.714;2023-02-22T10:36:25;99386.34;;;13.54;68.13
71195;BME280;58908;51.426;7.714;2023-02-22T10:38:52;99387.19;;;13.54;64.90
71195;BME280;58908;51.426;7.714;2023-02-22T10:41:22;99385.53;;;13.64;67.98
71195;BME280;58908;51.426;7.714;2023-02-22T10:43:51;99395.69;;;13.70;69.97
71195;BME280;58908;51.426;7.714;2023-02-22T10:46:17;99387.88;;;13.80;71.16
71195;BME280;58908;51.426;7.714;2023-02-22T10:48:46;99379.34;;;13.87;67.23
71195;BME280;58908;51.426;7.714;2023-02-22T10:51:13;99376.41;;;13.68;65.53
71195;BME280;58908;51.426;7.714;2023-02-22T10:53:40;99381.38;;;13.73;66.39
71195;BME280;58908;51.426;7.714;2023-02-22T10:56:07;99375.88;;;13.98;63.23
71195;BME280;58908;51.426;7.714;2023-02-22T10:58:48;99367.69;;;14.12;64.48
71195;BME280;58908;51.426;7.714;2023-02-22T11:01:19;99368.81;;;14.20;61.79
71195;BME280;58908;51.426;7.714;2023-02-22T11:03:46;99376.56;;;14.45;62.98
71195;BME280;58908;51.426;7.714;2023-02-22T11:06:20;99373.09;;;14.10;66.79
71195;BME280;58908;51.426;7.714;2023-02-22T11:08:47;99365.38;;;14.07;66.40
71195;BME280;58908;51.426;7.714;2023-02-22T11:11:22;99370.09;;;14.04;64.22
71195;BME280;58908;51.426;7.714;2023-02-22T11:13:53;99365.09;;;14.34;65.00
71195;BME280;58908;51.426;7.714;2023-02-22T11:16:24;99373.41;;;14.29;65.51
71195;BME280;58908;51.426;7.714;2023-02-22T11:18:55;99355.56;;;14.42;63.19
71195;BME280;58908;51.426;7.714;2023-02-22T11:21:24;99353.41;;;14.47;62.21
71195;BME280;58908;51.426;7.714;2023-02-22T11:23:50;99360.13;;;14.29;63.82
71195;BME280;58908;51.426;7.714;2023-02-22T11:26:25;99359.78;;;14.23;62.32
71195;BME280;58908;51.426;7.714;2023-02-22T11:28:52;99359.13;;;14.08;64.10
71195;BME280;58908;51.426;7.714;2023-02-22T11:31:22;99347.78;;;14.06;63.16
71195;BME280;58908;51.426;7.714;2023-02-22T11:33:50;99350.84;;;14.24;65.42
71195;BME280;58908;51.426;7.714;2023-02-22T11:39:05;99346.63;;;14.32;62.30
71195;BME280;58908;51.426;7.714;2023-02-22T11:41:35;99349.66;;;14.28;63.57
71195;BME280;58908;51.426;7.714;2023-02-22T11:44:11;99339.47;;;14.11;64.25
71195;BME280;58908;51.426;7.714;2023-02-22T11:46:39;99342.38;;;13.97;64.68
71195;BME280;58908;51.426;7.714;2023-02-22T11:49:07;99345.38;;;14.03;64.30
71195;BME280;58908;51.426;7.714;2023-02-22T11:51:38;99345.38;;;13.92;65.44
71195;BME280;58908;51.426;7.714;2023-02-22T11:54:15;99338.41;;;14.02;64.83
71195;BME280;58908;51.426;7.714;2023-02-22T11:56:50;99337.78;;;14.10;65.62
71195;BME280;58908;51.426;7.714;2023-02-22T11:59:20;99342.03;;;14.12;66.56
71195;BME280;58908;51.426;7.714;2023-02-22T12:01:52;99334.66;;;14.16;66.57
71195;BME280;58908;51.426;7.714;2023-02-22T12:04:43;99329.03;;;14.20;67.49
71195;BME280;58908;51.426;7.714;2023-02-22T12:07:17;99327.78;;;14.02;66.00
71195;BME280;58908;51.426;7.714;2023-02-22T12:09:47;99326.69;;;14.16;67.55
71195;BME280;58908;51.426;7.714;2023-02-22T12:12:18;99326.25;;;14.33;66.87
71195;BME280;58908;51.426;7.714;2023-02-22T12:14:51;99315.19;;;14.28;67.54
71195;BME280;58908;51.426;7.714;2023-02-22T12:17:24;99317.22;;;14.24;67.03
71195;BME280;58908;51.426;7.714;2023-02-22T12:19:55;99309.22;;;14.13;66.33
71195;BME280;58908;51.426;7.714;2023-02-22T12:22:26;99308.03;;;14.17;66.64
71195;BME280;58908;51.426;7.714;2023-02-22T12:24:54;99308.97;;;14.05;66.84
71195;BME280;58908;51.426;7.714;2023-02-22T12:27:24;99308.13;;;14.05;67.26
71195;BME280;58908;51.426;7.714;2023-02-22T12:29:53;99308.38;;;14.02;67.85
71195;BME280;58908;51.426;7.714;2023-02-22T12:32:26;99305.28;;;14.19;67.05
71195;BME280;58908;51.426;7.714;2023-02-22T12:34:54;99299.97;;;14.30;67.15
71195;BME280;58908;51.426;7.714;2023-02-22T12:37:25;99301.28;;;14.35;66.63
71195;BME280;58908;51.426;7.714;2023-02-22T12:39:54;99298.75;;;14.34;66.34
71195;BME280;58908;51.426;7.714;2023-02-22T12:42:25;99302.75;;;14.28;67.08
71195;BME280;58908;51.426;7.714;2023-02-22T12:44:57;99299.81;;;14.31;64.99
71195;BME280;58908;51.426;7.714;2023-02-22T12:47:28;99291.28;;;14.39;63.91
71195;BME280;58908;51.426;7.714;2023-02-22T12:49:56;99290.53;;;14.37;65.82
71195;BME280;58908;51.426;7.714;2023-02-22T12:52:34;99291.63;;;14.45;65.24
71195;BME280;58908;51.426;7.714;2023-02-22T12:55:06;99288.13;;;14.44;65.14
71195;BME280;58908;51.426;7.714;2023-02-22T12:57:38;99285.72;;;14.52;64.40
71195;BME280;58908;51.426;7.714;2023-02-22T13:00:08;99278.19;;;14.68;65.22
71195;BME280;58908;51.426;7.714;2023-02-22T13:02:42;99284.22;;;14.59;64.80
71195;BME280;58908;51.426;7.714;2023-02-22T13:05:12;99284.56;;;14.66;65.20
71195;BME280;58908;51.426;7.714;2023-02-22T13:07:39;99282.44;;;14.60;65.31
71195;BME280;58908;51.426;7.714;2023-02-22T13:10:19;99280.59;;;14.60;63.39
71195;BME280;58908;51.426;7.714;2023-02-22T13:12:51;99274.44;;;14.71;63.88
71195;BME280;58908;51.426;7.714;2023-02-22T13:15:22;99270.22;;;14.68;63.34